Time;durP1;ratioP1;P1;durP2;ratioP2;P2;SDS_P1;SDS_P2;PMS_P1;PMS_P2;Temp;Humidity;BMP_temperature;BMP_pressure;BME280_temperature;BME280_humidity;BME280_pressure;Samples;Min_cycle;Max_cycle;Signal;HPM_P1;HPM_P2
2022/04/13 00:00:50;;;;;;;15.98;9.43;;;;;;;12.59;53.79;101032.66;4837991;28;119628;-87
2022/04/13 00:03:16;;;;;;;13.57;9.32;;;;;;;12.67;53.38;101042.16;4841526;28;120489;-86
2022/04/13 00:05:41;;;;;;;19.88;9.95;;;;;;;12.60;53.21;101025.94;4838374;28;119790;-86
2022/04/13 00:08:08;;;;;;;14.35;9.48;;;;;;;12.59;53.78;101016.16;4802985;28;123077;-88
2022/04/13 10:21:09;;;;;;;17.00;9.80;;;;;;;19.55;47.64;101108.63;1304213;23;120820;-92
2022/04/13 13:30:26;;;;;;;4.47;3.40;;;;;;;20.48;49.88;101125.16;1506790;23;120099;-94
2022/04/13 13:33:15;;;;;;;8.65;5.10;;;;;;;20.45;50.05;101126.19;5061300;23;122244;-96
2022/04/13 20:27:41;;;;;;;42.55;23.88;;;;;;;16.00;62.53;101452.00;5278303;23;119998;-89
2022/04/13 20:30:07;;;;;;;43.13;23.17;;;;;;;16.00;62.64;101457.53;4850531;28;120143;-88
2022/04/13 20:32:33;;;;;;;39.08;24.30;;;;;;;15.96;62.74;101436.34;4819016;28;120554;-88
2022/04/13 20:34:58;;;;;;;45.67;23.95;;;;;;;15.99;62.56;101445.69;4836610;28;122543;-92
2022/04/13 20:37:24;;;;;;;44.05;23.90;;;;;;;15.94;62.73;101446.34;4869370;28;120427;-89
2022/04/13 20:39:49;;;;;;;38.35;23.48;;;;;;;16.04;62.88;101463.66;4854613;28;120991;-89
2022/04/13 20:42:15;;;;;;;43.30;24.98;;;;;;;15.95;63.08;101451.41;4844574;28;120246;-90
2022/04/13 20:44:44;;;;;;;45.67;24.67;;;;;;;15.99;62.56;101458.75;4834004;28;120033;-89
2022/04/13 20:47:10;;;;;;;41.78;24.67;;;;;;;15.93;62.55;101455.88;4839698;28;119687;-90
2022/04/13 20:49:36;;;;;;;44.00;24.58;;;;;;;15.87;62.80;101447.47;4868051;28;120205;-90
2022/04/13 20:52:02;;;;;;;39.92;24.52;;;;;;;15.73;62.81;101419.69;4868439;28;120538;-89
2022/04/13 20:54:31;;;;;;;40.28;24.63;;;;;;;15.46;63.05;101390.91;4820464;28;122506;-89
2022/04/13 20:56:58;;;;;;;43.90;25.10;;;;;;;15.89;62.85;101449.75;4849440;28;123280;-87
2022/04/13 20:59:24;;;;;;;43.05;25.05;;;;;;;15.88;63.20;101448.97;4849832;28;120044;-89
2022/04/13 21:01:49;;;;;;;48.97;27.30;;;;;;;15.67;62.68;101433.41;4822519;28;122360;-91
2022/04/13 21:04:15;;;;;;;44.17;26.48;;;;;;;15.55;62.57;101424.03;4818931;28;120133;-92
2022/04/13 21:06:41;;;;;;;46.13;27.33;;;;;;;15.75;62.75;101453.19;4832714;28;121566;-89
2022/04/13 21:09:09;;;;;;;42.83;26.40;;;;;;;15.79;62.81;101462.84;4850560;28;123249;-89
2022/04/13 21:11:34;;;;;;;46.05;28.30;;;;;;;15.81;63.22;101462.38;4848141;28;120004;-88
2022/04/13 21:14:00;;;;;;;51.85;28.30;;;;;;;15.78;62.89;101469.59;4834917;28;122955;-89
2022/04/13 21:16:26;;;;;;;48.85;28.40;;;;;;;15.46;63.05;101418.53;4827745;28;122352;-91
2022/04/13 21:18:54;;;;;;;48.60;28.17;;;;;;;15.64;63.05;101440.63;4868398;28;120012;-89
2022/04/13 21:21:20;;;;;;;46.90;28.83;;;;;;;15.53;62.98;101426.50;4867264;28;119953;-88
2022/04/13 21:23:46;;;;;;;47.70;27.95;;;;;;;15.61;63.00;101438.81;4867423;28;121108;-89
2022/04/13 21:26:15;;;;;;;52.85;28.80;;;;;;;15.67;63.34;101452.75;4834838;28;122471;-87
2022/04/13 21:28:41;;;;;;;45.80;28.17;;;;;;;15.35;63.47;101402.44;4816862;28;123128;-88
2022/04/13 21:31:08;;;;;;;40.55;27.42;;;;;;;15.61;63.30;101454.59;4835037;28;120176;-90
2022/04/13 21:33:35;;;;;;;52.63;28.65;;;;;;;15.50;63.50;101437.72;4866297;28;120568;-89
2022/04/13 21:36:00;;;;;;;42.20;26.80;;;;;;;15.19;63.65;101400.06;4849835;28;120088;-87
2022/04/13 21:38:26;;;;;;;39.42;25.95;;;;;;;15.27;63.53;101406.78;4827066;28;120684;-90
2022/04/13 21:40:51;;;;;;;48.70;27.33;;;;;;;15.23;63.31;101399.88;4850315;28;122944;-89
2022/04/13 21:43:17;;;;;;;44.53;26.17;;;;;;;15.34;63.54;101422.25;4818580;28;124066;-90
2022/04/13 21:45:43;;;;;;;46.58;27.23;;;;;;;15.41;63.88;101435.78;4855191;28;120136;-87
2022/04/13 21:48:09;;;;;;;46.92;27.90;;;;;;;15.22;63.40;101417.69;4824159;28;123244;-90
2022/04/13 21:50:34;;;;;;;50.33;28.05;;;;;;;15.22;63.76;101415.69;4850612;28;121407;-91
2022/04/13 21:53:00;;;;;;;48.67;28.13;;;;;;;15.40;64.10;101448.06;4828897;28;123018;-90
2022/04/13 21:55:25;;;;;;;50.05;27.58;;;;;;;15.25;63.73;101419.53;4820538;28;123269;-88
2022/04/13 21:57:56;;;;;;;47.08;27.23;;;;;;;15.33;63.70;101440.84;4835430;28;119877;-90
2022/04/13 22:00:48;;;;;;;48.35;27.10;;;;;;;15.23;63.75;101441.34;4827598;28;119910;-88
2022/04/13 22:03:16;;;;;;;44.63;26.95;;;;;;;15.32;63.89;101446.84;4845305;28;124431;-89
2022/04/13 22:05:42;;;;;;;43.33;26.88;;;;;;;15.03;63.60;101408.69;4865945;28;119782;-92
2022/04/13 22:08:08;;;;;;;46.97;27.88;;;;;;;15.23;64.04;101447.63;4857313;28;120417;-88
2022/04/13 22:10:35;;;;;;;46.42;27.67;;;;;;;15.28;63.67;101449.75;4835136;28;119683;-88
2022/04/13 22:13:01;;;;;;;45.28;27.75;;;;;;;15.06;64.06;101416.03;4829262;28;122682;-91
2022/04/13 22:15:29;;;;;;;46.13;27.15;;;;;;;15.18;63.78;101430.91;4842270;28;120423;-88
2022/04/13 22:17:58;;;;;;;43.42;27.60;;;;;;;15.08;64.36;101424.63;4842042;28;120711;-87
2022/04/13 22:20:24;;;;;;;46.60;28.58;;;;;;;15.24;64.05;101451.16;4830510;28;122337;-88
2022/04/13 22:22:50;;;;;;;47.53;28.15;;;;;;;15.11;64.10;101436.75;4842508;28;123537;-89
2022/04/13 22:25:16;;;;;;;48.00;28.20;;;;;;;15.02;64.31;101427.25;4848794;28;121993;-88
2022/04/13 22:27:44;;;;;;;44.20;28.35;;;;;;;15.06;63.90;101438.13;4849168;28;119646;-89
2022/04/13 22:30:10;;;;;;;45.92;28.50;;;;;;;15.08;64.03;101443.97;4852924;28;123183;-88
2022/04/13 22:32:36;;;;;;;47.53;28.30;;;;;;;15.02;63.95;101437.53;4844927;28;120740;-88
2022/04/13 22:35:07;;;;;;;48.22;28.35;;;;;;;15.03;64.26;101436.31;4835162;28;123406;-88
2022/04/13 22:37:33;;;;;;;46.53;28.50;;;;;;;15.04;64.28;101443.38;4846951;28;119737;-88
2022/04/13 22:39:58;;;;;;;49.65;29.10;;;;;;;15.05;64.49;101439.38;4825336;28;122746;-89
2022/04/13 22:42:24;;;;;;;48.25;28.77;;;;;;;15.07;64.22;101442.44;4852323;28;120648;-89
2022/04/13 22:44:50;;;;;;;53.85;30.08;;;;;;;14.85;64.62;101414.22;4835389;28;121355;-91
2022/04/13 22:47:15;;;;;;;47.47;28.55;;;;;;;14.85;64.52;101411.47;4847781;28;119728;-89
2022/04/13 22:49:42;;;;;;;49.85;29.85;;;;;;;14.97;64.13;101427.88;4838327;28;123243;-89
2022/04/13 22:52:10;;;;;;;51.45;29.17;;;;;;;14.99;64.51;101439.22;4821009;28;119799;-90
2022/04/13 22:54:39;;;;;;;51.20;28.73;;;;;;;15.02;64.82;101446.59;4836685;28;123065;-90
2022/04/13 22:57:05;;;;;;;46.25;29.10;;;;;;;14.93;64.63;101429.28;4827717;28;120078;-88
2022/04/13 22:59:31;;;;;;;53.00;30.25;;;;;;;14.98;64.76;101439.69;4818320;28;122875;-87
2022/04/13 23:01:56;;;;;;;50.70;29.60;;;;;;;14.97;64.66;101436.16;4816389;28;123495;-88
2022/04/13 23:04:22;;;;;;;50.95;29.90;;;;;;;14.72;64.60;101397.84;4816009;28;119918;-88
2022/04/13 23:06:48;;;;;;;50.08;28.80;;;;;;;14.99;64.53;101430.94;4835722;28;122068;-90
2022/04/13 23:09:13;;;;;;;49.00;30.63;;;;;;;14.89;64.25;101409.31;4853197;28;122825;-88
2022/04/13 23:11:39;;;;;;;55.20;31.55;;;;;;;14.85;64.34;101397.66;4823644;28;120252;-88
2022/04/13 23:14:05;;;;;;;60.28;32.65;;;;;;;15.10;64.56;101444.28;4834808;28;123527;-87
2022/04/13 23:16:31;;;;;;;56.17;32.67;;;;;;;15.03;64.03;101431.53;4821493;28;120853;-90
2022/04/13 23:18:57;;;;;;;58.47;32.50;;;;;;;15.13;64.43;101443.34;4822375;28;122253;-88
2022/04/13 23:21:35;;;;;;;56.58;32.58;;;;;;;14.95;64.54;101415.75;4829222;28;123653;-88
2022/04/13 23:24:01;;;;;;;55.23;32.70;;;;;;;14.99;64.49;101422.66;4823947;28;119663;-88
2022/04/13 23:26:26;;;;;;;55.22;32.53;;;;;;;15.13;64.33;101440.56;4818874;28;122260;-90
2022/04/13 23:28:52;;;;;;;56.22;32.22;;;;;;;15.14;64.71;101444.91;4848076;28;123836;-89
2022/04/13 23:31:18;;;;;;;54.15;33.25;;;;;;;15.12;64.37;101435.50;4852402;28;120086;-90
